Time;durP1;ratioP1;P1;durP2;ratioP2;P2;SDS_P1;SDS_P2;PMS_P1;PMS_P2;Temp;Humidity;BMP_temperature;BMP_pressure;BME280_temperature;BME280_humidity;BME280_pressure;Samples;Min_cycle;Max_cycle;Signal;HPM_P1;HPM_P2
2022/06/07 00:00:47;;;;;;;7.60;3.80;;;;;;;18.63;57.42;100949.13;5110344;28;20042;-69
2022/06/07 00:03:14;;;;;;;7.93;3.75;;;;;;;18.63;57.29;100947.31;5092871;28;20534;-70
2022/06/07 00:05:43;;;;;;;10.63;4.30;;;;;;;18.60;57.47;100936.94;5092966;28;20047;-70
2022/06/07 00:08:12;;;;;;;12.52;4.00;;;;;;;18.58;57.64;100941.72;5077045;28;20055;-70
2022/06/07 00:10:39;;;;;;;8.30;3.80;;;;;;;18.57;57.54;100932.81;5109904;28;20481;-70
2022/06/07 00:13:06;;;;;;;7.53;3.80;;;;;;;18.54;57.60;100933.22;5093312;28;20048;-70
2022/06/07 00:15:33;;;;;;;13.50;3.85;;;;;;;18.59;57.43;100937.97;5093120;28;20028;-69
2022/06/07 00:18:01;;;;;;;10.13;4.10;;;;;;;18.54;57.45;100935.91;5093674;28;20059;-69
2022/06/07 00:20:27;;;;;;;7.88;3.80;;;;;;;18.55;57.63;100926.81;5093029;28;20046;-69
2022/06/07 00:22:55;;;;;;;8.75;4.20;;;;;;;18.52;57.71;100926.38;5076103;28;20052;-69
2022/06/07 00:25:22;;;;;;;9.10;4.05;;;;;;;18.47;57.67;100934.22;5109604;28;20035;-70
2022/06/07 00:27:49;;;;;;;10.50;4.25;;;;;;;18.38;58.08;100930.91;5093047;28;20086;-69
2022/06/07 00:30:17;;;;;;;8.23;4.18;;;;;;;18.36;57.95;100938.31;5108849;28;20461;-70
2022/06/07 00:32:44;;;;;;;8.75;3.95;;;;;;;18.41;58.04;100925.13;5110618;28;20400;-69
2022/06/07 00:35:13;;;;;;;8.82;3.97;;;;;;;18.40;57.81;100935.03;5109438;28;20089;-70
2022/06/07 00:37:39;;;;;;;8.57;3.60;;;;;;;18.42;57.99;100929.44;5092686;28;20450;-70
2022/06/07 00:40:07;;;;;;;7.93;3.83;;;;;;;18.40;58.11;100929.66;5092573;28;20139;-70
2022/06/07 00:42:34;;;;;;;10.57;3.90;;;;;;;18.44;57.83;100923.88;5076082;28;20401;-70
2022/06/07 00:45:01;;;;;;;9.13;3.80;;;;;;;18.46;58.03;100924.50;5059268;28;20074;-70
2022/06/07 00:47:30;;;;;;;7.90;4.20;;;;;;;18.42;57.97;100922.22;5092581;28;20048;-69
2022/06/07 00:50:01;;;;;;;9.60;4.15;;;;;;;18.47;58.13;100918.94;5075776;28;20145;-70
2022/06/07 00:52:30;;;;;;;8.77;4.00;;;;;;;18.47;57.92;100923.50;5109167;28;20450;-70
2022/06/07 00:54:58;;;;;;;10.90;4.30;;;;;;;18.48;57.95;100923.28;5075430;28;20048;-70
2022/06/07 00:57:44;;;;;;;13.05;4.50;;;;;;;18.48;57.81;100919.75;5095260;28;20066;-70
2022/06/07 01:00:19;;;;;;;11.75;4.78;;;;;;;18.44;57.97;100918.50;5108387;28;20066;-70
2022/06/07 01:02:49;;;;;;;9.18;4.10;;;;;;;18.47;57.96;100916.25;5092777;28;20040;-70
2022/06/07 01:05:15;;;;;;;10.52;4.70;;;;;;;18.43;58.02;100917.69;5089216;28;20042;-70
2022/06/07 01:10:46;;;;;;;9.00;4.88;;;;;;;18.39;58.07;100911.03;5078461;28;20079;-70
2022/06/07 01:13:21;;;;;;;11.05;5.05;;;;;;;18.38;58.20;100912.91;5081087;28;20050;-70
2022/06/07 01:15:56;;;;;;;10.68;4.95;;;;;;;18.33;58.19;100911.88;5095747;28;20051;-70
2022/06/07 01:18:23;;;;;;;9.43;4.40;;;;;;;18.28;58.22;100917.00;5078512;28;20040;-69
2022/06/07 01:21:30;;;;;;;12.18;4.80;;;;;;;18.33;58.03;100910.00;5095035;28;20132;-69
2022/06/07 01:23:58;;;;;;;10.95;5.32;;;;;;;18.34;58.21;100913.53;5095044;28;20078;-70
2022/06/07 01:26:32;;;;;;;9.07;4.50;;;;;;;18.37;57.86;100913.09;5078307;28;20075;-70
2022/06/07 01:29:02;;;;;;;11.05;5.30;;;;;;;18.31;57.61;100905.88;5095120;28;20056;-70
2022/06/07 01:31:29;;;;;;;10.98;4.40;;;;;;;18.27;57.52;100904.63;5078063;28;20094;-70
2022/06/07 01:33:56;;;;;;;11.63;5.20;;;;;;;18.19;57.83;100905.59;5077504;28;20047;-70
2022/06/07 01:36:23;;;;;;;10.13;4.32;;;;;;;18.26;57.60;100902.97;5078153;28;20114;-70
2022/06/07 01:42:09;;;;;;;8.90;4.40;;;;;;;18.23;57.27;100899.66;5067074;28;20047;-70
2022/06/07 01:44:34;;;;;;;7.78;3.92;;;;;;;18.23;57.60;100910.38;5081277;28;20139;-70
2022/06/07 01:47:02;;;;;;;9.70;4.30;;;;;;;18.25;57.22;100898.63;5094604;28;20052;-70
2022/06/07 01:49:32;;;;;;;10.27;3.88;;;;;;;18.22;57.48;100906.03;5062375;28;20056;-70
2022/06/07 01:51:59;;;;;;;9.93;4.10;;;;;;;18.24;57.21;100900.47;5044942;28;20139;-70
2022/06/07 01:54:28;;;;;;;10.20;4.22;;;;;;;18.27;57.17;100896.56;5095325;28;20058;-71
2022/06/07 01:56:56;;;;;;;8.45;4.25;;;;;;;18.24;56.87;100892.41;5077819;28;20048;-70
2022/06/07 01:59:23;;;;;;;10.15;3.70;;;;;;;18.26;57.00;100897.59;5060963;28;20397;-70
2022/06/07 02:01:51;;;;;;;10.35;3.80;;;;;;;18.14;56.99;100895.47;5077625;28;20109;-71
2022/06/07 02:04:20;;;;;;;8.52;3.30;;;;;;;18.20;56.98;100893.84;5093450;28;20038;-71
2022/06/07 02:06:49;;;;;;;10.48;3.75;;;;;;;18.18;56.71;100893.22;5039241;28;20422;-70
2022/06/07 02:09:22;;;;;;;9.30;3.80;;;;;;;18.16;56.66;100879.19;5094135;28;20046;-71
2022/06/07 02:11:51;;;;;;;11.77;3.50;;;;;;;18.18;56.37;100890.53;5077480;28;20059;-71
2022/06/07 02:14:17;;;;;;;9.93;3.63;;;;;;;18.08;56.51;100887.38;5093849;28;20375;-71
2022/06/07 02:16:44;;;;;;;7.18;3.28;;;;;;;18.18;56.44;100883.31;5093692;28;20063;-70
2022/06/07 02:19:11;;;;;;;8.65;3.63;;;;;;;18.15;56.16;100881.00;5094542;28;20119;-71
2022/06/07 02:21:42;;;;;;;10.63;3.50;;;;;;;18.16;56.50;100876.50;5094208;28;20052;-70
2022/06/07 02:24:10;;;;;;;8.93;3.47;;;;;;;18.20;56.17;100877.75;5077105;28;20460;-70
2022/06/07 02:26:43;;;;;;;8.52;3.22;;;;;;;18.14;56.10;100874.00;5093964;28;20097;-70
2022/06/07 02:29:13;;;;;;;9.18;3.10;;;;;;;18.13;56.03;100882.25;5077273;28;20050;-69
2022/06/07 02:31:45;;;;;;;9.05;3.85;;;;;;;18.16;55.89;100881.88;5076673;28;20489;-70
2022/06/07 02:34:15;;;;;;;10.25;3.28;;;;;;;18.08;56.20;100879.34;5060932;28;20139;-69
2022/06/07 02:36:46;;;;;;;7.95;3.30;;;;;;;18.10;55.89;100880.81;5076927;28;20040;-70
2022/06/07 02:39:14;;;;;;;9.55;3.30;;;;;;;18.11;56.07;100887.81;5093634;28;20444;-70
2022/06/07 02:41:42;;;;;;;8.07;3.20;;;;;;;18.11;55.86;100878.94;5076918;28;20093;-70
2022/06/07 02:44:08;;;;;;;12.23;3.63;;;;;;;18.10;55.86;100888.00;5094466;28;20040;-69
2022/06/07 02:46:35;;;;;;;9.45;3.03;;;;;;;18.12;55.81;100886.81;5093399;28;20075;-70
2022/06/07 02:49:03;;;;;;;8.73;3.38;;;;;;;18.16;55.43;100879.19;5076767;28;20040;-69
2022/06/07 02:51:31;;;;;;;8.88;3.40;;;;;;;18.11;55.22;100877.09;5076743;28;20083;-70
2022/06/07 02:54:01;;;;;;;9.32;3.20;;;;;;;18.06;55.46;100881.41;5093060;28;20145;-70
2022/06/07 02:56:28;;;;;;;9.48;3.38;;;;;;;18.04;55.40;100884.28;5059810;28;20046;-70
2022/06/07 02:58:56;;;;;;;8.40;3.22;;;;;;;18.01;55.38;100885.50;5093056;28;20123;-69
2022/06/07 03:01:27;;;;;;;7.20;2.95;;;;;;;17.93;55.29;100882.16;5076669;28;20040;-70
2022/06/07 03:03:54;;;;;;;8.73;3.28;;;;;;;17.92;55.27;100877.81;5075863;28;20443;-69
2022/06/07 03:06:21;;;;;;;7.88;3.25;;;;;;;17.95;55.61;100880.94;5076110;28;20035;-69
2022/06/07 03:08:50;;;;;;;8.75;3.22;;;;;;;17.94;55.49;100879.28;5093098;28;20039;-69
2022/06/07 03:11:17;;;;;;;9.32;3.00;;;;;;;18.00;55.37;100881.16;5092991;28;20094;-69
2022/06/07 03:13:46;;;;;;;6.72;3.10;;;;;;;17.97;55.24;100880.72;5092940;28;20071;-70
2022/06/07 03:16:20;;;;;;;8.80;3.10;;;;;;;17.98;55.15;100879.72;5076913;28;20036;-70
2022/06/07 03:18:48;;;;;;;10.43;2.80;;;;;;;17.99;55.03;100884.88;5092931;28;20048;-69
2022/06/07 03:21:15;;;;;;;10.32;3.33;;;;;;;17.97;55.16;100883.41;5076100;28;20067;-69
2022/06/07 03:23:44;;;;;;;9.10;3.17;;;;;;;18.02;55.12;100886.34;5093899;28;20055;-69
2022/06/07 03:26:12;;;;;;;12.57;3.30;;;;;;;18.02;54.82;100887.16;5076281;28;20048;-70
2022/06/07 03:28:46;;;;;;;10.35;3.05;;;;;;;17.97;54.64;100895.00;5075717;28;20040;-70
2022/06/07 03:31:17;;;;;;;7.15;2.97;;;;;;;17.96;55.04;100893.34;5092089;28;20447;-70
2022/06/07 03:33:49;;;;;;;8.10;3.22;;;;;;;18.03;54.58;100894.19;5093676;28;20044;-69
2022/06/07 03:36:22;;;;;;;10.05;2.90;;;;;;;18.00;54.68;100893.75;5075852;28;20501;-70
2022/06/07 03:38:50;;;;;;;11.05;3.35;;;;;;;17.95;54.82;100891.66;5092480;28;20074;-70
2022/06/07 03:41:22;;;;;;;9.43;3.10;;;;;;;17.97;54.97;100895.00;5092705;28;20580;-69
2022/06/07 03:43:56;;;;;;;11.32;3.17;;;;;;;17.97;54.88;100897.69;5092586;28;20123;-70
2022/06/07 03:46:27;;;;;;;9.23;3.17;;;;;;;17.95;54.91;100898.91;5076494;28;20097;-70
2022/06/07 03:48:55;;;;;;;13.05;3.22;;;;;;;17.94;54.96;100906.13;5076089;28;20051;-70
2022/06/07 03:51:26;;;;;;;8.63;2.97;;;;;;;17.95;54.73;100902.41;5076209;28;20047;-69
2022/06/07 03:53:54;;;;;;;10.85;3.10;;;;;;;17.98;54.58;100914.59;5092456;28;20101;-69
2022/06/07 03:56:23;;;;;;;8.27;2.90;;;;;;;17.99;54.67;100900.16;5076285;28;20036;-70
2022/06/07 03:58:52;;;;;;;7.78;2.75;;;;;;;17.99;54.50;100906.38;5096618;28;20044;-69
2022/06/07 04:01:21;;;;;;;7.20;2.80;;;;;;;18.03;54.04;100904.94;5096887;28;20044;-69
2022/06/07 04:03:55;;;;;;;9.40;3.00;;;;;;;17.99;54.50;100906.38;5076941;28;20511;-69
2022/06/07 04:06:24;;;;;;;;;;;;;;;17.92;54.22;100905.50;5096968;28;20048;-69
2022/06/07 04:08:55;;;;;;;7.10;3.05;;;;;;;17.94;54.30;100908.00;5095572;28;20015;-69
2022/06/07 04:11:25;;;;;;;10.05;3.10;;;;;;;17.96;53.99;100909.44;5104766;28;20055;-69
2022/06/07 04:13:59;;;;;;;10.00;3.30;;;;;;;18.00;54.22;100905.31;5088967;28;20396;-70
2022/06/07 04:16:28;;;;;;;11.57;3.00;;;;;;;17.99;54.23;100902.81;5098763;28;20040;-71
2022/06/07 04:19:03;;;;;;;10.50;3.28;;;;;;;18.03;54.09;100904.09;5109463;28;20048;-70
2022/06/07 04:21:30;;;;;;;9.40;3.15;;;;;;;18.03;54.21;100904.94;5092442;28;20047;-69
2022/06/07 04:24:07;;;;;;;9.60;2.90;;;;;;;18.06;53.89;100902.88;5076834;28;20048;-69
2022/06/07 04:26:36;;;;;;;10.48;3.35;;;;;;;18.02;53.73;100897.88;5043262;28;20090;-69
2022/06/07 04:29:03;;;;;;;9.32;2.90;;;;;;;18.06;53.84;100901.00;5093251;28;20067;-69
2022/06/07 04:31:32;;;;;;;9.07;2.83;;;;;;;18.05;53.93;100907.41;5092076;28;20032;-69
2022/06/07 04:34:05;;;;;;;16.52;3.20;;;;;;;18.02;53.65;100899.75;5091577;28;20379;-69
2022/06/07 04:36:35;;;;;;;7.18;3.00;;;;;;;17.93;53.85;100901.78;5075511;28;20556;-68
2022/06/07 04:39:06;;;;;;;8.32;2.97;;;;;;;17.95;53.93;100902.41;5075861;28;20560;-69
2022/06/07 04:41:40;;;;;;;8.82;2.70;;;;;;;18.02;53.73;100892.53;5078879;28;20131;-70
2022/06/07 04:44:11;;;;;;;10.13;2.70;;;;;;;18.07;53.48;100897.31;5096063;28;20040;-69
2022/06/07 04:46:38;;;;;;;8.82;2.78;;;;;;;18.03;53.42;100894.19;5045924;28;20581;-70
2022/06/07 04:49:06;;;;;;;9.23;2.97;;;;;;;18.12;53.24;100905.59;5095522;28;20044;-70
2022/06/07 04:51:36;;;;;;;10.75;2.90;;;;;;;18.09;53.16;100897.13;5078655;28;20074;-70
2022/06/07 04:54:10;;;;;;;8.88;3.05;;;;;;;18.03;53.14;100904.94;5095231;28;20105;-69
2022/06/07 04:56:41;;;;;;;11.32;2.92;;;;;;;18.01;53.49;100904.31;5095310;28;20123;-70
2022/06/07 04:59:10;;;;;;;10.98;3.10;;;;;;;17.99;53.15;100905.50;5095322;28;20040;-69
2022/06/07 05:01:43;;;;;;;9.02;3.10;;;;;;;18.00;53.16;100909.88;5095027;28;20040;-69
2022/06/07 05:04:17;;;;;;;9.00;3.00;;;;;;;17.97;53.59;100908.41;5095888;28;20032;-70
2022/06/07 05:06:46;;;;;;;15.00;3.30;;;;;;;18.00;53.60;100924.09;5078365;28;20035;-70
2022/06/07 05:09:22;;;;;;;7.72;2.78;;;;;;;17.99;53.35;100922.47;5063419;28;20070;-69
2022/06/07 05:11:54;;;;;;;10.93;3.10;;;;;;;18.03;53.68;100912.97;5096072;28;20397;-70
2022/06/07 05:14:23;;;;;;;9.60;3.25;;;;;;;18.11;53.52;100919.22;5095075;28;20093;-69
2022/06/07 05:16:50;;;;;;;9.80;3.92;;;;;;;18.14;53.34;100916.97;5045218;28;20479;-70
2022/06/07 05:19:23;;;;;;;8.05;3.17;;;;;;;18.08;53.53;100922.28;5079230;28;20497;-70
2022/06/07 05:22:01;;;;;;;11.00;3.35;;;;;;;18.07;53.54;100916.09;5094917;28;20035;-69
2022/06/07 05:24:31;;;;;;;10.18;3.40;;;;;;;18.08;53.53;100916.91;5095225;28;20512;-70
2022/06/07 05:27:00;;;;;;;11.80;3.15;;;;;;;18.08;53.51;100915.09;5095095;28;20044;-69
2022/06/07 05:29:45;;;;;;;10.98;3.50;;;;;;;18.06;53.83;100916.28;5095117;28;20138;-69
2022/06/07 05:32:16;;;;;;;9.25;3.38;;;;;;;18.09;53.67;100918.59;5078640;28;20047;-70
2022/06/07 05:34:48;;;;;;;8.25;3.03;;;;;;;18.15;53.75;100926.66;5063009;28;20044;-70
2022/06/07 05:37:19;;;;;;;11.02;3.25;;;;;;;18.18;53.50;100928.94;5095862;28;20044;-69
2022/06/07 05:39:49;;;;;;;7.82;2.92;;;;;;;18.11;53.53;100921.91;5094932;28;20497;-69
2022/06/07 05:42:17;;;;;;;9.65;2.80;;;;;;;18.11;53.77;100916.53;5077879;28;20064;-69
2022/06/07 05:44:47;;;;;;;8.57;3.00;;;;;;;18.06;53.63;100925.16;5095852;28;20044;-69
2022/06/07 05:47:14;;;;;;;8.65;3.05;;;;;;;18.09;53.80;100922.09;5077660;28;20067;-69
2022/06/07 05:49:50;;;;;;;10.90;3.00;;;;;;;18.12;53.62;100928.91;5094620;28;20040;-69
2022/06/07 05:52:21;;;;;;;10.23;3.10;;;;;;;18.13;53.65;100926.03;5078120;28;20050;-70
2022/06/07 05:54:50;;;;;;;9.88;2.97;;;;;;;18.10;53.62;100928.28;5077756;28;20087;-70
2022/06/07 05:57:17;;;;;;;10.75;2.83;;;;;;;18.14;53.79;100926.88;5095419;28;20033;-71
2022/06/07 05:59:46;;;;;;;9.48;2.88;;;;;;;18.13;53.55;100922.53;5095289;28;20093;-70
2022/06/07 06:02:14;;;;;;;9.63;2.97;;;;;;;18.12;53.77;100926.22;5094589;28;20485;-70
2022/06/07 06:04:42;;;;;;;8.40;2.90;;;;;;;18.09;53.64;100929.31;5086461;28;20036;-71
2022/06/07 06:07:09;;;;;;;11.68;2.97;;;;;;;18.14;53.47;100932.25;5090681;28;20036;-69
2022/06/07 06:12:34;;;;;;;8.52;2.85;;;;;;;18.15;53.30;100926.66;5074738;28;20132;-70
2022/06/07 06:15:09;;;;;;;12.38;2.90;;;;;;;18.20;53.56;100926.88;5067994;28;20052;-69
2022/06/07 06:17:37;;;;;;;11.73;2.72;;;;;;;18.18;53.26;100930.81;5073843;28;20054;-69
2022/06/07 06:20:12;;;;;;;11.40;2.60;;;;;;;18.25;53.12;100929.00;5058437;28;20044;-69
2022/06/07 06:22:44;;;;;;;8.43;2.58;;;;;;;18.22;52.98;100929.38;5074857;28;20059;-71
2022/06/07 06:25:13;;;;;;;9.80;2.70;;;;;;;18.20;53.06;100929.56;5073415;28;20551;-70
2022/06/07 06:27:41;;;;;;;8.35;2.83;;;;;;;18.17;53.50;100932.69;5073585;28;20102;-68
2022/06/07 06:30:10;;;;;;;8.63;2.80;;;;;;;18.26;53.25;100927.94;5072884;28;20048;-69
2022/06/07 06:32:46;;;;;;;8.35;2.47;;;;;;;18.33;53.07;100922.59;5073404;28;20493;-70
2022/06/07 06:35:17;;;;;;;7.90;2.70;;;;;;;18.34;52.97;100917.03;5073336;28;20053;-69
2022/06/07 06:37:45;;;;;;;10.85;3.10;;;;;;;18.35;52.75;100918.69;5074023;28;20386;-69
2022/06/07 06:40:12;;;;;;;10.10;2.92;;;;;;;18.21;52.89;100920.50;5094428;28;20550;-69
2022/06/07 06:42:48;;;;;;;6.82;2.58;;;;;;;18.35;53.04;100918.69;5091035;28;20044;-73
2022/06/07 06:45:25;;;;;;;9.38;2.92;;;;;;;18.48;52.52;100915.25;5086905;28;20043;-73
2022/06/07 06:47:56;;;;;;;9.95;2.78;;;;;;;18.45;51.87;100917.50;5077470;28;20512;-73
